createdAt,value
2023-05-10T00:00:33.543Z,2088.00
2023-05-10T00:01:33.593Z,2099.00
2023-05-10T00:02:33.654Z,2101.00
2023-05-10T00:03:33.644Z,2099.00
2023-05-10T00:04:33.639Z,2094.00
2023-05-10T00:05:33.681Z,2082.00
2023-05-10T00:06:33.711Z,2086.00
2023-05-10T00:07:33.785Z,2082.00
2023-05-10T00:08:33.831Z,2087.00
2023-05-10T00:09:33.797Z,2082.00
2023-05-10T00:10:33.832Z,2090.00
2023-05-10T00:11:33.890Z,2089.00
2023-05-10T00:12:33.925Z,2086.00
2023-05-10T00:13:33.922Z,2080.00
2023-05-10T00:14:33.935Z,2080.00
2023-05-10T00:15:33.993Z,2080.00
2023-05-10T00:16:34.058Z,2085.00
2023-05-10T00:17:34.076Z,2082.00
2023-05-10T00:18:34.082Z,2078.00
2023-05-10T00:19:34.132Z,2100.00
2023-05-10T00:20:34.106Z,2065.00
2023-05-10T00:21:34.174Z,2074.00
2023-05-10T00:22:34.232Z,2069.00
2023-05-10T00:23:34.227Z,2068.00
2023-05-10T00:24:34.274Z,2067.00
2023-05-10T00:25:34.321Z,2073.00
2023-05-10T00:26:34.353Z,2074.00
2023-05-10T00:27:34.371Z,2075.00
2023-05-10T00:28:34.415Z,2073.00
2023-05-10T00:29:34.462Z,2064.00
2023-05-10T00:30:34.461Z,2059.00
2023-05-10T00:31:34.527Z,2076.00
2023-05-10T00:32:34.563Z,2072.00
2023-05-10T00:33:34.590Z,2067.00
2023-05-10T00:34:34.625Z,2067.00
2023-05-10T00:35:34.629Z,2081.00
2023-05-10T00:36:34.701Z,2052.00
2023-05-10T00:37:34.702Z,2066.00
2023-05-10T00:38:34.706Z,2065.00
2023-05-10T00:39:34.801Z,2075.00
2023-05-10T00:40:34.816Z,2075.00
2023-05-10T00:41:34.845Z,2069.00
2023-05-10T00:42:34.838Z,2057.00
2023-05-10T00:43:34.890Z,2064.00
2023-05-10T00:44:34.889Z,2065.00
2023-05-10T00:45:34.972Z,2060.00
2023-05-10T00:46:35.083Z,2051.00
2023-05-10T00:47:35.061Z,2055.00
2023-05-10T00:48:35.065Z,2048.00
2023-05-10T00:49:35.097Z,2041.00
2023-05-10T00:50:35.108Z,2051.00
2023-05-10T00:51:35.140Z,2052.00
2023-05-10T00:52:35.195Z,2062.00
2023-05-10T00:53:35.232Z,2056.00
2023-05-10T00:54:35.235Z,2049.00
2023-05-10T00:55:35.277Z,2041.00
2023-05-10T00:56:35.302Z,2048.00
2023-05-10T00:57:35.369Z,2035.00
2023-05-10T00:58:35.383Z,2041.00
2023-05-10T00:59:35.399Z,2029.00
2023-05-10T01:00:35.427Z,2026.00
2023-05-10T01:01:35.521Z,2032.00
2023-05-10T01:02:35.650Z,2028.00
2023-05-10T01:03:35.578Z,2047.00
2023-05-10T01:04:35.608Z,2039.00
2023-05-10T01:05:35.593Z,2030.00
2023-05-10T01:06:35.625Z,2033.00
2023-05-10T01:07:35.681Z,2023.00
2023-05-10T01:08:35.714Z,2037.00
2023-05-10T01:09:35.723Z,2027.00
2023-05-10T01:10:35.794Z,2019.00
2023-05-10T01:11:35.818Z,2026.00
2023-05-10T01:12:35.906Z,2015.00
2023-05-10T01:13:35.914Z,2026.00
2023-05-10T01:14:35.920Z,2007.00
2023-05-10T01:15:36.032Z,2009.00
2023-05-10T01:16:36.043Z,2019.00
2023-05-10T01:17:36.038Z,2020.00
2023-05-10T01:18:36.061Z,2003.00
2023-05-10T01:19:36.155Z,2005.00
2023-05-10T01:20:36.124Z,2014.00
2023-05-10T01:21:36.229Z,2017.00
2023-05-10T01:22:36.221Z,2003.00
2023-05-10T01:23:36.249Z,2007.00
2023-05-10T01:24:36.282Z,2013.00
2023-05-10T01:25:36.294Z,1990.00
2023-05-10T01:26:36.389Z,1994.00
2023-05-10T01:27:36.359Z,1992.00
2023-05-10T01:28:36.437Z,1991.00
2023-05-10T01:29:36.477Z,1977.00
2023-05-10T01:30:36.502Z,1997.00
2023-05-10T01:31:36.594Z,1998.00
2023-05-10T01:32:36.632Z,1983.00
2023-05-10T01:33:36.608Z,1993.00
2023-05-10T01:34:36.652Z,1988.00
2023-05-10T01:35:36.681Z,1988.00
2023-05-10T01:36:36.700Z,1993.00
2023-05-10T01:37:36.706Z,1996.00
2023-05-10T01:38:36.802Z,1993.00
2023-05-10T01:39:36.811Z,1981.00
2023-05-10T01:40:36.827Z,1981.00
2023-05-10T01:41:36.864Z,1973.00
2023-05-10T01:42:36.900Z,1981.00
2023-05-10T01:43:36.923Z,1983.00
2023-05-10T01:44:36.987Z,1974.00
2023-05-10T01:45:37.001Z,1973.00
2023-05-10T01:46:37.074Z,1976.00
2023-05-10T01:47:37.094Z,1970.00
2023-05-10T01:48:37.127Z,1977.00
2023-05-10T01:49:37.152Z,1976.00
2023-05-10T01:50:37.201Z,1982.00
2023-05-10T01:51:37.253Z,1960.00
2023-05-10T01:52:37.298Z,1963.00
2023-05-10T01:53:37.321Z,1968.00
2023-05-10T01:54:37.366Z,1974.00
2023-05-10T01:55:37.411Z,1971.00
2023-05-10T01:56:37.429Z,1966.00
2023-05-10T01:57:37.461Z,1964.00
2023-05-10T01:58:37.495Z,1960.00
2023-05-10T01:59:37.550Z,1959.00
2023-05-10T02:00:37.645Z,1952.00
2023-05-10T02:01:37.684Z,1954.00
2023-05-10T02:02:37.759Z,1954.00
2023-05-10T02:03:37.724Z,1945.00
2023-05-10T02:04:37.737Z,1958.00
2023-05-10T02:05:37.767Z,1960.00
2023-05-10T02:06:37.823Z,1952.00
2023-05-10T02:07:37.854Z,1941.00
2023-05-10T02:08:37.899Z,1950.00
2023-05-10T02:09:38.013Z,1942.00
2023-05-10T02:10:37.987Z,1952.00
2023-05-10T02:11:38.054Z,1953.00
2023-05-10T02:12:38.052Z,1955.00
2023-05-10T02:13:38.079Z,1935.00
2023-05-10T02:14:38.173Z,1941.00
2023-05-10T02:15:38.176Z,1938.00
2023-05-10T02:16:38.286Z,1925.00
2023-05-10T02:17:38.327Z,1937.00
2023-05-10T02:18:38.305Z,1938.00
2023-05-10T02:19:38.325Z,1926.00
2023-05-10T02:20:38.352Z,1926.00
2023-05-10T02:21:38.426Z,1927.00
2023-05-10T02:22:38.445Z,1930.00
2023-05-10T02:23:38.527Z,1928.00
2023-05-10T02:24:38.520Z,1945.00
2023-05-10T02:25:38.577Z,1928.00
2023-05-10T02:26:38.604Z,1912.00
2023-05-10T02:27:38.643Z,1922.00
2023-05-10T02:28:38.678Z,1928.00
2023-05-10T02:29:38.768Z,1921.00
2023-05-10T02:30:38.791Z,1922.00
2023-05-10T02:31:38.877Z,1925.00
2023-05-10T02:32:38.879Z,1920.00
2023-05-10T02:33:38.938Z,1925.00
2023-05-10T02:34:38.983Z,1921.00
2023-05-10T02:35:38.975Z,1921.00
2023-05-10T02:36:39.040Z,1911.00
2023-05-10T02:37:39.064Z,1921.00
2023-05-10T02:38:39.093Z,1917.00
2023-05-10T02:39:39.148Z,1924.00
2023-05-10T02:40:39.183Z,1918.00
2023-05-10T02:41:39.226Z,1911.00
2023-05-10T02:42:39.289Z,1909.00
2023-05-10T02:43:39.284Z,1911.00
2023-05-10T02:44:39.370Z,1913.00
2023-05-10T02:45:39.407Z,1910.00
2023-05-10T02:46:39.496Z,1900.00
2023-05-10T02:47:39.490Z,1901.00
2023-05-10T02:48:39.529Z,1901.00
2023-05-10T02:49:39.585Z,1900.00
2023-05-10T02:50:39.595Z,1913.00
2023-05-10T02:51:39.654Z,1905.00
2023-05-10T02:52:39.668Z,1901.00
2023-05-10T02:53:39.735Z,1911.00
2023-05-10T02:54:39.753Z,1889.00
2023-05-10T02:55:39.784Z,1898.00
2023-05-10T02:56:39.867Z,1899.00
2023-05-10T02:57:39.865Z,1885.00
2023-05-10T02:58:39.944Z,1886.00
2023-05-10T02:59:39.966Z,1896.00
2023-05-10T03:00:40.019Z,1895.00
2023-05-10T03:01:40.105Z,1885.00
2023-05-10T03:02:40.186Z,1893.00
2023-05-10T03:03:40.167Z,1899.00
2023-05-10T03:04:40.234Z,1894.00
2023-05-10T03:05:40.239Z,1894.00
2023-05-10T03:06:40.269Z,1893.00
2023-05-10T03:07:40.331Z,1882.00
2023-05-10T03:08:40.354Z,1882.00
2023-05-10T03:09:40.361Z,1879.00
2023-05-10T03:10:40.435Z,1891.00
2023-05-10T03:11:40.452Z,1888.00
2023-05-10T03:12:40.483Z,1884.00
2023-05-10T03:13:40.560Z,1866.00
2023-05-10T03:14:40.576Z,1886.00
2023-05-10T03:15:40.651Z,1885.00
2023-05-10T03:16:42.045Z,1872.00
2023-05-10T03:17:40.694Z,1876.00
2023-05-10T03:18:40.654Z,1876.00
2023-05-10T03:19:40.638Z,1877.00
2023-05-10T03:20:40.607Z,1869.00
2023-05-10T03:21:40.626Z,1887.00
2023-05-10T03:22:40.625Z,1866.00
2023-05-10T03:23:40.632Z,1886.00
2023-05-10T03:24:40.611Z,1875.00
2023-05-10T03:25:40.611Z,1863.00
2023-05-10T03:26:40.619Z,1867.00
2023-05-10T03:27:40.561Z,1865.00
2023-05-10T03:28:40.605Z,1866.00
2023-05-10T03:29:40.580Z,1860.00
2023-05-10T03:30:40.588Z,1861.00
2023-05-10T03:31:40.574Z,1858.00
2023-05-10T03:32:40.543Z,1864.00
2023-05-10T03:33:40.553Z,1856.00
2023-05-10T03:34:40.540Z,1855.00
2023-05-10T03:35:40.574Z,1861.00
2023-05-10T03:36:40.531Z,1863.00
2023-05-10T03:37:40.540Z,1847.00
2023-05-10T03:38:40.515Z,1856.00
2023-05-10T03:39:40.497Z,1859.00
2023-05-10T03:40:40.495Z,1851.00
2023-05-10T03:41:40.507Z,1837.00
2023-05-10T03:42:40.515Z,1832.00
2023-05-10T03:43:40.467Z,1839.00
2023-05-10T03:44:40.502Z,1839.00
2023-05-10T03:45:40.493Z,1840.00
2023-05-10T03:46:40.516Z,1852.00
2023-05-10T03:47:40.476Z,1842.00
2023-05-10T03:48:40.449Z,1834.00
2023-05-10T03:49:40.408Z,1824.00
2023-05-10T03:50:40.468Z,1831.00
2023-05-10T03:51:40.433Z,1826.00
2023-05-10T03:52:40.425Z,1822.00
2023-05-10T03:53:40.435Z,1828.00
2023-05-10T03:54:40.401Z,1832.00
2023-05-10T03:55:40.366Z,1835.00
2023-05-10T03:56:40.379Z,1841.00
2023-05-10T03:57:40.368Z,1835.00
2023-05-10T03:58:40.391Z,1826.00
2023-05-10T03:59:40.369Z,1830.00
2023-05-10T04:00:40.368Z,1820.00
2023-05-10T04:01:40.419Z,1820.00
2023-05-10T04:02:40.471Z,1827.00
2023-05-10T04:03:40.404Z,1812.00
2023-05-10T04:04:40.313Z,1782.00
2023-05-10T04:05:40.359Z,1747.00
2023-05-10T04:06:40.395Z,1708.00
2023-05-10T04:07:40.418Z,1664.00
2023-05-10T04:08:40.494Z,1615.00
2023-05-10T04:09:40.499Z,1566.00
2023-05-10T04:10:40.511Z,1525.00
2023-05-10T04:11:40.557Z,1492.00
2023-05-10T04:12:40.617Z,1472.00
2023-05-10T04:13:40.627Z,1473.00
2023-05-10T04:14:40.649Z,1435.00
2023-05-10T04:15:40.711Z,1421.00
2023-05-10T04:16:40.764Z,1398.00
2023-05-10T04:17:40.847Z,1389.00
2023-05-10T04:18:40.818Z,1375.00
2023-05-10T04:19:40.866Z,1378.00
2023-05-10T04:20:40.868Z,1382.00
2023-05-10T04:21:40.922Z,1387.00
2023-05-10T04:22:40.959Z,1370.00
2023-05-10T04:23:41.000Z,1367.00
2023-05-10T04:24:41.066Z,1373.00
2023-05-10T04:25:41.122Z,1356.00
2023-05-10T04:26:41.121Z,1369.00
2023-05-10T04:27:41.197Z,1377.00
2023-05-10T04:28:41.173Z,1358.00
2023-05-10T04:29:41.239Z,1349.00
2023-05-10T04:30:41.312Z,1320.00
2023-05-10T04:31:41.364Z,1331.00
2023-05-10T04:32:41.339Z,1319.00
2023-05-10T04:33:41.397Z,1341.00
2023-05-10T04:34:41.484Z,1359.00
2023-05-10T04:35:41.518Z,1381.00
2023-05-10T04:36:41.536Z,1365.00
2023-05-10T04:37:41.670Z,1356.00
2023-05-10T04:38:41.729Z,1375.00
2023-05-10T04:39:42.412Z,1394.00
2023-05-10T04:40:41.753Z,1401.00
2023-05-10T04:41:41.752Z,1408.00
2023-05-10T04:42:41.894Z,1409.00
2023-05-10T04:43:41.901Z,1408.00
2023-05-10T04:44:41.972Z,1410.00
2023-05-10T04:45:42.005Z,1418.00
2023-05-10T04:46:42.256Z,1420.00
2023-05-10T04:47:42.175Z,1428.00
2023-05-10T04:48:42.135Z,1446.00
2023-05-10T04:49:42.213Z,1456.00
2023-05-10T04:50:42.256Z,1442.00
2023-05-10T04:51:42.320Z,1458.00
2023-05-10T04:52:42.324Z,1463.00
2023-05-10T04:53:44.662Z,1466.00
2023-05-10T04:54:43.360Z,1467.00
2023-05-10T04:55:42.368Z,1468.00
2023-05-10T04:56:42.362Z,1470.00
2023-05-10T04:57:42.346Z,1480.00
2023-05-10T04:58:42.360Z,1499.00
2023-05-10T04:59:42.354Z,1489.00
2023-05-10T05:00:42.354Z,1489.00
2023-05-10T05:01:42.387Z,1500.00
2023-05-10T05:02:42.504Z,1487.00
2023-05-10T05:03:42.339Z,1493.00
2023-05-10T05:04:42.308Z,1496.00
2023-05-10T05:05:42.341Z,1491.00
2023-05-10T05:06:42.367Z,1499.00
2023-05-10T05:07:42.432Z,1502.00
2023-05-10T05:08:42.535Z,1489.00
2023-05-10T05:09:42.545Z,1495.00
2023-05-10T05:10:42.555Z,1496.00
2023-05-10T05:11:42.606Z,1502.00
2023-05-10T05:12:42.731Z,1494.00
2023-05-10T05:13:42.692Z,1502.00
2023-05-10T05:14:42.777Z,1524.00
2023-05-10T05:15:42.793Z,1514.00
2023-05-10T05:16:42.892Z,1504.00
2023-05-10T05:17:42.947Z,1515.00
2023-05-10T05:18:42.913Z,1519.00
2023-05-10T05:19:42.935Z,1499.00
2023-05-10T05:20:42.956Z,1517.00
2023-05-10T05:21:43.030Z,1516.00
2023-05-10T05:22:43.084Z,1516.00
2023-05-10T05:23:43.139Z,1513.00
2023-05-10T05:24:43.158Z,1519.00
2023-05-10T05:25:43.208Z,1527.00
2023-05-10T05:26:43.285Z,1522.00
2023-05-10T05:27:43.274Z,1519.00
2023-05-10T05:28:43.327Z,1512.00
2023-05-10T05:29:43.364Z,1510.00
2023-05-10T05:30:43.403Z,1516.00
2023-05-10T05:31:43.581Z,1513.00
2023-05-10T05:32:43.625Z,1518.00
2023-05-10T05:33:43.531Z,1529.00
2023-05-10T05:34:43.580Z,1519.00
2023-05-10T05:35:43.637Z,1517.00
2023-05-10T05:36:43.687Z,1527.00
2023-05-10T05:37:43.799Z,1454.00
2023-05-10T05:38:43.808Z,1449.00
2023-05-10T05:39:43.894Z,1678.00
2023-05-10T05:40:43.872Z,1628.00
2023-05-10T05:41:44.088Z,1495.00
2023-05-10T05:42:43.887Z,1387.00
2023-05-10T05:43:43.898Z,1363.00
2023-05-10T05:44:43.903Z,1461.00
2023-05-10T05:45:43.957Z,1455.00
2023-05-10T05:46:43.960Z,1340.00
2023-05-10T05:47:43.977Z,1253.00
2023-05-10T05:48:44.249Z,1286.00
2023-05-10T05:49:44.097Z,1462.00
2023-05-10T05:50:44.098Z,1532.00
2023-05-10T05:51:44.057Z,1663.00
2023-05-10T05:52:44.094Z,1723.00
2023-05-10T05:53:44.128Z,1853.00
2023-05-10T05:54:44.067Z,1909.00
2023-05-10T05:55:44.126Z,2008.00
2023-05-10T05:56:44.618Z,2000.00
2023-05-10T05:57:44.201Z,2014.00
2023-05-10T05:58:44.251Z,2029.00
2023-05-10T05:59:44.326Z,2064.00
2023-05-10T06:00:44.370Z,2052.00
2023-05-10T06:01:44.669Z,2018.00
2023-05-10T06:02:44.716Z,2037.00
2023-05-10T06:03:44.687Z,1995.00
2023-05-10T06:04:44.903Z,1994.00
2023-05-10T06:05:44.624Z,2071.00
2023-05-10T06:06:45.125Z,2139.00
2023-05-10T06:07:44.722Z,2180.00
2023-05-10T06:08:44.795Z,2086.00
2023-05-10T06:09:45.098Z,2066.00
2023-05-10T06:10:44.849Z,2010.00
2023-05-10T06:11:45.114Z,1976.00
2023-05-10T06:12:45.059Z,1981.00
2023-05-10T06:13:44.919Z,2007.00
2023-05-10T06:14:45.096Z,2051.00
2023-05-10T06:15:45.057Z,2043.00
2023-05-10T06:16:45.085Z,2087.00
2023-05-10T06:17:45.124Z,2020.00
2023-05-10T06:18:45.086Z,2120.00
2023-05-10T06:19:45.217Z,2086.00
2023-05-10T06:20:45.141Z,2087.00
2023-05-10T06:21:45.199Z,2079.00
2023-05-10T06:22:45.223Z,2051.00
2023-05-10T06:23:45.324Z,2149.00
2023-05-10T06:24:45.304Z,2230.00
2023-05-10T06:25:45.316Z,2284.00
2023-05-10T06:26:45.343Z,2275.00
2023-05-10T06:27:48.413Z,2228.00
2023-05-10T06:28:46.407Z,2228.00
2023-05-10T06:29:45.372Z,2230.00
2023-05-10T06:30:45.346Z,2207.00
2023-05-10T06:31:45.405Z,2203.00
2023-05-10T06:32:45.363Z,2301.00
2023-05-10T06:33:45.366Z,2329.00
2023-05-10T06:34:45.315Z,2283.00
2023-05-10T06:35:45.323Z,2301.00
2023-05-10T06:36:45.316Z,2326.00
2023-05-10T06:37:45.414Z,2209.00
2023-05-10T06:38:45.660Z,2255.00
2023-05-10T06:39:45.453Z,2224.00
2023-05-10T06:40:45.449Z,2242.00
2023-05-10T06:41:45.454Z,2253.00
2023-05-10T06:42:45.496Z,2232.00
2023-05-10T06:43:45.530Z,2236.00
2023-05-10T06:44:45.581Z,2369.00
2023-05-10T06:45:45.598Z,2416.00
2023-05-10T06:46:45.691Z,2386.00
2023-05-10T06:47:45.698Z,2337.00
2023-05-10T06:48:46.135Z,2341.00
2023-05-10T06:49:46.132Z,2364.00
2023-05-10T06:50:46.144Z,2384.00
2023-05-10T06:51:46.109Z,2352.00
2023-05-10T06:52:46.150Z,2356.00
2023-05-10T06:53:45.859Z,2362.00
2023-05-10T06:54:46.120Z,2353.00
2023-05-10T06:55:46.157Z,2347.00
2023-05-10T06:56:45.909Z,2391.00
2023-05-10T06:57:46.113Z,2439.00
2023-05-10T06:58:46.015Z,2453.00
2023-05-10T06:59:45.986Z,2474.00
2023-05-10T07:00:46.065Z,2517.00
2023-05-10T07:01:46.072Z,2521.00
2023-05-10T07:02:46.034Z,2468.00
2023-05-10T07:03:46.117Z,2424.00
2023-05-10T07:04:46.190Z,2486.00
2023-05-10T07:05:46.171Z,2530.00
2023-05-10T07:06:46.097Z,2479.00
2023-05-10T07:07:46.117Z,2443.00
2023-05-10T07:08:46.137Z,2361.00
2023-05-10T07:09:46.156Z,2412.00
2023-05-10T07:10:46.178Z,2388.00
2023-05-10T07:11:46.185Z,2317.00
2023-05-10T07:12:46.354Z,2288.00
2023-05-10T07:13:46.260Z,2307.00
2023-05-10T07:14:46.628Z,2309.00
2023-05-10T07:15:46.622Z,2361.00
2023-05-10T07:16:46.288Z,2304.00
2023-05-10T07:17:46.550Z,2304.00
2023-05-10T07:18:46.641Z,2337.00
2023-05-10T07:19:46.642Z,2352.00
2023-05-10T07:20:46.443Z,2413.00
2023-05-10T07:21:46.344Z,2377.00
2023-05-10T07:22:46.437Z,2374.00
2023-05-10T07:23:46.408Z,2393.00
2023-05-10T07:24:46.474Z,2545.00
2023-05-10T07:25:46.460Z,2528.00
2023-05-10T07:26:46.458Z,2519.00
2023-05-10T07:27:46.454Z,2555.00
2023-05-10T07:28:46.492Z,2560.00
2023-05-10T07:29:46.473Z,2543.00
2023-05-10T07:30:46.524Z,2494.00
2023-05-10T07:31:46.599Z,2499.00
2023-05-10T07:32:46.569Z,2414.00
2023-05-10T07:33:46.604Z,2336.00
2023-05-10T07:34:46.784Z,2287.00
2023-05-10T07:35:46.656Z,2342.00
2023-05-10T07:36:46.622Z,2324.00
2023-05-10T07:37:47.150Z,2217.00
2023-05-10T07:38:46.659Z,2176.00
2023-05-10T07:39:47.154Z,2166.00
2023-05-10T07:40:47.160Z,2179.00
2023-05-10T07:41:46.770Z,2176.00
2023-05-10T07:42:46.826Z,2230.00
2023-05-10T07:43:46.872Z,2269.00
2023-05-10T07:44:46.838Z,2284.00
2023-05-10T07:45:47.175Z,2359.00
2023-05-10T07:46:46.903Z,2417.00
2023-05-10T07:47:46.956Z,2675.00
2023-05-10T07:48:46.839Z,2834.00
2023-05-10T07:49:46.862Z,2934.00
2023-05-10T07:50:46.945Z,2886.00
2023-05-10T07:51:46.873Z,2787.00
2023-05-10T07:52:46.868Z,2869.00
2023-05-10T07:53:46.912Z,2826.00
2023-05-10T07:54:46.884Z,2720.00
2023-05-10T07:55:46.885Z,2684.00
2023-05-10T07:56:46.911Z,2734.00
2023-05-10T07:57:46.908Z,2711.00
2023-05-10T07:58:46.902Z,2582.00
2023-05-10T07:59:46.880Z,2491.00
2023-05-10T08:00:46.952Z,2577.00
2023-05-10T08:01:46.903Z,2719.00
2023-05-10T08:02:46.923Z,2826.00
2023-05-10T08:03:46.993Z,2853.00
2023-05-10T08:04:46.908Z,2791.00
2023-05-10T08:05:46.882Z,2754.00
2023-05-10T08:06:46.882Z,2764.00
2023-05-10T08:07:47.181Z,2813.00
2023-05-10T08:08:46.898Z,2765.00
2023-05-10T08:09:46.936Z,2701.00
2023-05-10T08:10:46.885Z,2696.00
2023-05-10T08:11:47.174Z,2707.00
2023-05-10T08:12:46.889Z,2691.00
2023-05-10T08:13:46.920Z,2624.00
2023-05-10T08:14:47.041Z,2651.00
2023-05-10T08:15:47.053Z,2764.00
2023-05-10T08:16:46.994Z,2751.00
2023-05-10T08:17:47.005Z,2691.00
2023-05-10T08:18:47.242Z,2670.00
2023-05-10T08:19:47.010Z,2677.00
2023-05-10T08:20:47.028Z,2683.00
2023-05-10T08:21:47.024Z,2681.00
2023-05-10T08:22:47.048Z,2656.00
2023-05-10T08:23:47.086Z,2661.00
2023-05-10T08:24:47.047Z,2572.00
2023-05-10T08:25:47.085Z,2495.00
2023-05-10T08:26:47.062Z,2456.00
2023-05-10T08:27:47.087Z,2403.00
2023-05-10T08:28:47.143Z,2387.00
2023-05-10T08:29:50.330Z,2357.00
2023-05-10T08:30:47.035Z,2407.00
2023-05-10T08:31:47.136Z,2305.00
2023-05-10T08:32:47.081Z,2233.00
2023-05-10T08:33:47.168Z,2238.00
2023-05-10T08:34:47.068Z,2170.00
2023-05-10T08:35:47.030Z,2178.00
2023-05-10T08:36:47.018Z,2237.00
2023-05-10T08:37:46.978Z,2167.00
2023-05-10T08:38:46.990Z,2117.00
2023-05-10T08:39:47.169Z,2063.00
2023-05-10T08:40:46.993Z,2037.00
2023-05-10T08:41:47.005Z,1961.00
2023-05-10T08:42:46.967Z,1938.00
2023-05-10T08:43:46.992Z,1935.00
2023-05-10T08:44:49.329Z,1975.00
2023-05-10T08:45:47.190Z,1979.00
2023-05-10T08:46:47.252Z,2002.00
2023-05-10T08:47:47.227Z,2082.00
2023-05-10T08:48:47.233Z,2195.00
2023-05-10T08:49:47.143Z,2301.00
2023-05-10T08:50:47.188Z,2321.00
2023-05-10T08:51:47.153Z,2364.00
2023-05-10T08:52:47.172Z,2394.00
2023-05-10T08:53:47.195Z,2385.00
2023-05-10T08:54:47.197Z,2370.00
2023-05-10T08:55:47.686Z,2396.00
2023-05-10T08:56:49.756Z,2506.00
2023-05-10T08:57:47.689Z,2596.00
2023-05-10T08:58:47.651Z,2506.00
2023-05-10T08:59:47.501Z,2454.00
2023-05-10T09:00:47.543Z,2593.00
2023-05-10T09:01:47.505Z,2559.00
2023-05-10T09:02:47.475Z,2536.00
2023-05-10T09:03:47.506Z,2551.00
2023-05-10T09:04:47.526Z,2719.00
2023-05-10T09:05:47.490Z,2807.00
2023-05-10T09:06:47.506Z,2858.00
2023-05-10T09:07:47.494Z,2893.00
2023-05-10T09:08:47.499Z,2877.00
2023-05-10T09:09:47.511Z,2938.00
2023-05-10T09:10:47.502Z,2901.00
2023-05-10T09:11:47.515Z,2827.00
2023-05-10T09:12:47.564Z,2900.00
2023-05-10T09:13:47.597Z,2899.00
2023-05-10T09:14:47.592Z,2851.00
2023-05-10T09:15:47.616Z,2832.00
2023-05-10T09:16:47.690Z,2813.00
2023-05-10T09:17:47.733Z,2817.00
2023-05-10T09:18:47.720Z,2759.00
2023-05-10T09:19:47.738Z,2694.00
2023-05-10T09:20:47.794Z,2671.00
2023-05-10T09:21:48.206Z,2642.00
2023-05-10T09:22:47.930Z,2788.00
2023-05-10T09:23:48.725Z,2842.00
2023-05-10T09:24:47.928Z,3048.00
2023-05-10T09:25:47.954Z,3061.00
2023-05-10T09:26:48.218Z,3040.00
2023-05-10T09:27:47.983Z,2990.00
2023-05-10T09:28:48.157Z,3011.00
2023-05-10T09:29:48.053Z,3079.00
2023-05-10T09:30:48.158Z,3048.00
2023-05-10T09:31:48.192Z,2897.00
2023-05-10T09:32:48.159Z,2571.00
2023-05-10T09:33:48.194Z,2328.00
2023-05-10T09:34:48.193Z,2144.00
2023-05-10T09:35:48.222Z,2024.00
2023-05-10T09:36:48.225Z,1911.00
2023-05-10T09:37:48.318Z,1813.00
2023-05-10T09:38:48.738Z,1823.00
2023-05-10T09:39:48.338Z,1806.00
2023-05-10T09:40:48.382Z,1808.00
2023-05-10T09:41:48.454Z,1851.00
2023-05-10T09:42:48.448Z,1849.00
2023-05-10T09:43:48.745Z,1855.00
2023-05-10T09:44:48.526Z,1883.00
2023-05-10T09:45:48.598Z,1954.00
2023-05-10T09:46:48.584Z,1986.00
2023-05-10T09:47:48.686Z,1960.00
2023-05-10T09:48:49.602Z,1964.00
2023-05-10T09:49:48.590Z,2032.00
2023-05-10T09:50:48.749Z,2081.00
2023-05-10T09:51:48.684Z,2039.00
2023-05-10T09:52:48.729Z,2009.00
2023-05-10T09:53:48.910Z,1963.00
2023-05-10T09:54:49.217Z,1921.00
2023-05-10T09:55:48.640Z,1927.00
2023-05-10T09:56:48.687Z,2038.00
2023-05-10T09:57:48.683Z,2140.00
2023-05-10T09:58:48.627Z,2162.00
2023-05-10T09:59:48.657Z,2242.00
2023-05-10T10:00:48.651Z,2267.00
2023-05-10T10:01:48.731Z,2262.00
2023-05-10T10:02:49.298Z,2272.00
2023-05-10T10:03:48.767Z,2279.00
2023-05-10T10:04:48.764Z,2268.00
2023-05-10T10:05:48.830Z,2230.00
2023-05-10T10:06:48.820Z,2266.00
2023-05-10T10:07:48.877Z,2245.00
2023-05-10T10:08:48.946Z,2266.00
2023-05-10T10:09:48.885Z,2324.00
2023-05-10T10:10:48.938Z,2466.00
2023-05-10T10:11:48.979Z,2427.00
2023-05-10T10:12:49.026Z,2308.00
2023-05-10T10:13:49.060Z,2315.00
2023-05-10T10:14:49.110Z,2344.00
2023-05-10T10:15:49.201Z,2362.00
2023-05-10T10:17:05.060Z,2351.00
2023-05-10T10:17:50.281Z,2350.00
2023-05-10T10:18:49.252Z,2321.00
2023-05-10T10:19:49.245Z,2357.00
2023-05-10T10:20:49.185Z,2329.00
2023-05-10T10:21:49.151Z,2252.00
2023-05-10T10:22:49.194Z,2175.00
2023-05-10T10:23:49.145Z,2110.00
2023-05-10T10:24:49.148Z,2170.00
2023-05-10T10:25:49.173Z,2238.00
2023-05-10T10:26:49.247Z,2265.00
2023-05-10T10:27:49.168Z,2096.00
2023-05-10T10:28:49.255Z,2027.00
2023-05-10T10:29:49.235Z,1904.00
2023-05-10T10:30:49.261Z,1825.00
2023-05-10T10:31:49.416Z,1725.00
2023-05-10T10:32:49.228Z,1714.00
2023-05-10T10:33:49.241Z,1803.00
2023-05-10T10:34:49.263Z,1991.00
2023-05-10T10:35:49.226Z,2019.00
2023-05-10T10:36:49.231Z,2081.00
2023-05-10T10:37:49.256Z,2087.00
2023-05-10T10:38:49.269Z,2132.00
2023-05-10T10:39:49.322Z,2183.00
2023-05-10T10:40:49.310Z,2169.00
2023-05-10T10:41:49.367Z,2109.00
2023-05-10T10:42:49.438Z,2108.00
2023-05-10T10:43:49.487Z,2175.00
2023-05-10T10:44:49.552Z,2264.00
2023-05-10T10:45:49.610Z,2270.00
2023-05-10T10:46:49.725Z,2380.00
2023-05-10T10:47:49.759Z,2367.00
2023-05-10T10:48:49.782Z,2345.00
2023-05-10T10:49:49.935Z,2282.00
2023-05-10T10:50:49.944Z,2303.00
2023-05-10T10:51:50.013Z,2246.00
2023-05-10T10:52:50.043Z,2227.00
2023-05-10T10:53:50.132Z,2278.00
2023-05-10T10:54:50.188Z,2222.00
2023-05-10T10:55:50.239Z,2216.00
2023-05-10T10:56:50.278Z,2204.00
2023-05-10T10:57:50.358Z,2218.00
2023-05-10T10:58:50.408Z,2225.00
2023-05-10T10:59:50.479Z,2233.00
2023-05-10T11:00:50.623Z,2162.00
2023-05-10T11:01:50.600Z,2142.00
2023-05-10T11:02:50.696Z,2113.00
2023-05-10T11:03:50.766Z,2192.00
2023-05-10T11:04:50.891Z,2133.00
2023-05-10T11:05:50.842Z,2143.00
2023-05-10T11:06:50.939Z,2114.00
2023-05-10T11:07:50.949Z,2125.00
2023-05-10T11:08:51.050Z,2019.00
2023-05-10T11:09:51.128Z,2056.00
2023-05-10T11:10:51.105Z,2126.00
2023-05-10T11:11:51.178Z,2174.00
2023-05-10T11:12:51.214Z,2170.00
2023-05-10T11:13:51.807Z,1995.00
2023-05-10T11:14:51.391Z,2022.00
2023-05-10T11:15:51.402Z,2041.00
2023-05-10T11:16:51.493Z,2042.00
2023-05-10T11:17:51.479Z,1861.00
2023-05-10T11:18:51.640Z,1760.00
2023-05-10T11:19:51.640Z,1539.00
2023-05-10T11:20:51.687Z,1474.00
2023-05-10T11:21:51.750Z,1423.00
2023-05-10T11:22:51.766Z,1358.00
2023-05-10T11:23:51.764Z,1283.00
2023-05-10T11:24:51.766Z,1208.00
2023-05-10T11:25:51.727Z,1130.00
2023-05-10T11:26:51.795Z,1043.00
2023-05-10T11:27:51.772Z,1095.00
2023-05-10T11:28:51.785Z,1026.00
2023-05-10T11:29:51.749Z,1007.00
2023-05-10T11:30:51.863Z,931.00
2023-05-10T11:31:51.819Z,900.00
2023-05-10T11:32:51.893Z,806.00
2023-05-10T11:33:51.865Z,714.00
2023-05-10T11:34:51.928Z,666.00
2023-05-10T11:35:51.948Z,720.00
2023-05-10T11:36:51.945Z,721.00
2023-05-10T11:37:52.048Z,665.00
2023-05-10T11:38:52.020Z,671.00
2023-05-10T11:39:52.027Z,660.00
2023-05-10T11:40:52.137Z,641.00
2023-05-10T11:41:52.126Z,640.00
2023-05-10T11:42:52.205Z,631.00
2023-05-10T11:43:52.185Z,607.00
2023-05-10T11:44:52.248Z,592.00
2023-05-10T11:45:52.287Z,563.00
2023-05-10T11:46:52.384Z,562.00
2023-05-10T11:47:52.401Z,566.00
2023-05-10T11:48:52.390Z,563.00
2023-05-10T11:49:52.449Z,527.00
2023-05-10T11:50:52.439Z,529.00
2023-05-10T11:51:52.519Z,507.00
2023-05-10T11:52:52.529Z,522.00
2023-05-10T11:53:52.579Z,554.00
2023-05-10T11:54:52.587Z,534.00
2023-05-10T11:55:52.643Z,536.00
2023-05-10T11:56:52.670Z,552.00
2023-05-10T11:57:52.675Z,574.00
2023-05-10T11:58:52.745Z,561.00
2023-05-10T11:59:52.828Z,549.00
2023-05-10T12:00:52.850Z,552.00
2023-05-10T12:01:52.841Z,566.00
2023-05-10T12:02:52.943Z,568.00
2023-05-10T12:03:53.160Z,531.00
2023-05-10T12:04:53.075Z,537.00
2023-05-10T12:05:53.035Z,596.00
2023-05-10T12:06:53.081Z,658.00